sensor_id;sensor_type;location;lat;lon;timestamp;P1;durP1;ratioP1;P2;durP2;ratioP2
1995;SDS011;38556;47.068;15.408;2022-11-02T00:00:53;26.70;;;24.90;;
1995;SDS011;38556;47.068;15.408;2022-11-02T00:03:21;27.92;;;26.05;;
1995;SDS011;38556;47.068;15.408;2022-11-02T00:05:49;27.30;;;25.53;;
1995;SDS011;38556;47.068;15.408;2022-11-02T00:08:16;26.95;;;25.15;;
1995;SDS011;38556;47.068;15.408;2022-11-02T00:10:43;27.75;;;25.73;;
1995;SDS011;38556;47.068;15.408;2022-11-02T00:13:12;28.58;;;26.48;;
1995;SDS011;38556;47.068;15.408;2022-11-02T00:15:39;28.55;;;26.52;;
1995;SDS011;38556;47.068;15.408;2022-11-02T00:18:08;29.70;;;27.65;;
1995;SDS011;38556;47.068;15.408;2022-11-02T00:20:37;29.60;;;27.50;;
1995;SDS011;38556;47.068;15.408;2022-11-02T00:23:06;27.98;;;26.17;;
1995;SDS011;38556;47.068;15.408;2022-11-02T00:25:36;29.20;;;27.20;;
1995;SDS011;38556;47.068;15.408;2022-11-02T00:28:04;28.40;;;26.40;;
1995;SDS011;38556;47.068;15.408;2022-11-02T00:30:33;27.73;;;25.80;;
1995;SDS011;38556;47.068;15.408;2022-11-02T00:33:00;28.60;;;26.60;;
1995;SDS011;38556;47.068;15.408;2022-11-02T00:35:28;29.03;;;26.83;;
1995;SDS011;38556;47.068;15.408;2022-11-02T00:37:55;28.23;;;26.42;;
1995;SDS011;38556;47.068;15.408;2022-11-02T00:40:22;28.30;;;26.30;;
1995;SDS011;38556;47.068;15.408;2022-11-02T00:42:50;28.48;;;26.25;;
1995;SDS011;38556;47.068;15.408;2022-11-02T00:45:17;27.27;;;25.38;;
1995;SDS011;38556;47.068;15.408;2022-11-02T00:47:46;28.95;;;26.85;;
1995;SDS011;38556;47.068;15.408;2022-11-02T00:50:13;28.73;;;26.33;;
1995;SDS011;38556;47.068;15.408;2022-11-02T00:52:40;27.67;;;25.77;;
1995;SDS011;38556;47.068;15.408;2022-11-02T00:55:08;25.88;;;24.27;;
1995;SDS011;38556;47.068;15.408;2022-11-02T00:57:37;26.40;;;24.70;;
1995;SDS011;38556;47.068;15.408;2022-11-02T01:00:07;25.77;;;24.13;;
1995;SDS011;38556;47.068;15.408;2022-11-02T01:02:35;27.15;;;25.25;;
1995;SDS011;38556;47.068;15.408;2022-11-02T01:05:06;26.58;;;24.95;;
1995;SDS011;38556;47.068;15.408;2022-11-02T01:07:34;26.70;;;24.75;;
1995;SDS011;38556;47.068;15.408;2022-11-02T01:10:02;25.10;;;23.50;;
1995;SDS011;38556;47.068;15.408;2022-11-02T01:12:30;26.35;;;24.45;;
1995;SDS011;38556;47.068;15.408;2022-11-02T01:14:57;25.08;;;23.38;;
1995;SDS011;38556;47.068;15.408;2022-11-02T01:17:24;26.33;;;24.63;;
1995;SDS011;38556;47.068;15.408;2022-11-02T01:19:52;25.38;;;23.60;;
1995;SDS011;38556;47.068;15.408;2022-11-02T01:22:20;25.25;;;23.60;;
1995;SDS011;38556;47.068;15.408;2022-11-02T01:24:48;24.90;;;23.38;;
1995;SDS011;38556;47.068;15.408;2022-11-02T01:27:15;25.80;;;24.10;;
1995;SDS011;38556;47.068;15.408;2022-11-02T01:29:42;25.80;;;24.20;;
1995;SDS011;38556;47.068;15.408;2022-11-02T01:32:09;24.65;;;23.05;;
1995;SDS011;38556;47.068;15.408;2022-11-02T01:34:37;25.38;;;23.73;;
1995;SDS011;38556;47.068;15.408;2022-11-02T01:37:04;25.80;;;23.98;;
1995;SDS011;38556;47.068;15.408;2022-11-02T01:39:34;24.67;;;23.08;;
1995;SDS011;38556;47.068;15.408;2022-11-02T01:42:01;24.95;;;23.38;;
1995;SDS011;38556;47.068;15.408;2022-11-02T01:44:30;26.35;;;24.35;;
1995;SDS011;38556;47.068;15.408;2022-11-02T01:47:00;26.05;;;24.25;;
1995;SDS011;38556;47.068;15.408;2022-11-02T01:49:33;25.75;;;24.05;;
1995;SDS011;38556;47.068;15.408;2022-11-02T01:52:04;25.33;;;23.30;;
1995;SDS011;38556;47.068;15.408;2022-11-02T01:54:37;25.30;;;23.77;;
1995;SDS011;38556;47.068;15.408;2022-11-02T01:57:09;25.55;;;23.73;;
1995;SDS011;38556;47.068;15.408;2022-11-02T01:59:42;24.48;;;22.88;;
1995;SDS011;38556;47.068;15.408;2022-11-02T02:02:16;24.98;;;23.40;;
1995;SDS011;38556;47.068;15.408;2022-11-02T02:04:47;26.33;;;24.63;;
1995;SDS011;38556;47.068;15.408;2022-11-02T02:07:17;25.40;;;23.75;;
1995;SDS011;38556;47.068;15.408;2022-11-02T02:09:50;25.35;;;23.70;;
1995;SDS011;38556;47.068;15.408;2022-11-02T02:12:19;25.85;;;24.08;;
1995;SDS011;38556;47.068;15.408;2022-11-02T02:14:47;25.48;;;23.77;;
1995;SDS011;38556;47.068;15.408;2022-11-02T02:17:22;25.45;;;23.70;;
1995;SDS011;38556;47.068;15.408;2022-11-02T02:19:57;24.35;;;22.75;;
1995;SDS011;38556;47.068;15.408;2022-11-02T02:22:45;27.67;;;25.58;;
1995;SDS011;38556;47.068;15.408;2022-11-02T02:25:46;25.50;;;23.80;;
1995;SDS011;38556;47.068;15.408;2022-11-02T02:28:27;24.73;;;23.13;;
1995;SDS011;38556;47.068;15.408;2022-11-02T02:31:03;25.35;;;23.60;;
1995;SDS011;38556;47.068;15.408;2022-11-02T02:33:38;25.95;;;24.30;;
1995;SDS011;38556;47.068;15.408;2022-11-02T02:36:12;25.25;;;23.55;;
1995;SDS011;38556;47.068;15.408;2022-11-02T02:38:46;28.15;;;25.80;;
1995;SDS011;38556;47.068;15.408;2022-11-02T02:41:21;24.67;;;23.15;;
1995;SDS011;38556;47.068;15.408;2022-11-02T02:43:53;26.13;;;24.42;;
1995;SDS011;38556;47.068;15.408;2022-11-02T02:46:24;24.52;;;22.92;;
1995;SDS011;38556;47.068;15.408;2022-11-02T02:48:57;26.27;;;24.52;;
1995;SDS011;38556;47.068;15.408;2022-11-02T02:51:27;24.30;;;22.80;;
1995;SDS011;38556;47.068;15.408;2022-11-02T02:53:58;26.48;;;23.98;;
1995;SDS011;38556;47.068;15.408;2022-11-02T02:56:29;24.65;;;23.05;;
1995;SDS011;38556;47.068;15.408;2022-11-02T02:59:05;24.88;;;23.20;;
1995;SDS011;38556;47.068;15.408;2022-11-02T03:01:34;25.42;;;23.73;;
1995;SDS011;38556;47.068;15.408;2022-11-02T03:04:08;23.92;;;22.27;;
1995;SDS011;38556;47.068;15.408;2022-11-02T03:06:37;23.90;;;22.45;;
1995;SDS011;38556;47.068;15.408;2022-11-02T03:09:07;25.58;;;23.95;;
1995;SDS011;38556;47.068;15.408;2022-11-02T03:11:40;24.77;;;23.23;;
1995;SDS011;38556;47.068;15.408;2022-11-02T03:14:33;25.17;;;23.63;;
1995;SDS011;38556;47.068;15.408;2022-11-02T03:17:12;25.90;;;24.25;;
1995;SDS011;38556;47.068;15.408;2022-11-02T03:19:44;26.40;;;24.52;;
1995;SDS011;38556;47.068;15.408;2022-11-02T03:22:20;25.80;;;24.10;;
1995;SDS011;38556;47.068;15.408;2022-11-02T03:24:56;25.10;;;23.35;;
1995;SDS011;38556;47.068;15.408;2022-11-02T03:27:33;24.70;;;23.10;;
1995;SDS011;38556;47.068;15.408;2022-11-02T03:30:08;27.05;;;25.00;;
1995;SDS011;38556;47.068;15.408;2022-11-02T03:32:40;25.83;;;24.13;;
1995;SDS011;38556;47.068;15.408;2022-11-02T03:35:15;26.63;;;24.70;;
1995;SDS011;38556;47.068;15.408;2022-11-02T03:37:47;24.15;;;22.75;;
1995;SDS011;38556;47.068;15.408;2022-11-02T03:40:18;25.23;;;23.63;;
1995;SDS011;38556;47.068;15.408;2022-11-02T03:42:50;26.25;;;24.55;;
1995;SDS011;38556;47.068;15.408;2022-11-02T03:45:21;26.55;;;24.70;;
1995;SDS011;38556;47.068;15.408;2022-11-02T03:47:53;27.33;;;25.45;;
1995;SDS011;38556;47.068;15.408;2022-11-02T03:50:24;26.73;;;25.02;;
1995;SDS011;38556;47.068;15.408;2022-11-02T03:52:54;26.10;;;24.42;;
1995;SDS011;38556;47.068;15.408;2022-11-02T03:55:25;26.55;;;24.90;;
1995;SDS011;38556;47.068;15.408;2022-11-02T03:57:57;25.40;;;23.90;;
1995;SDS011;38556;47.068;15.408;2022-11-02T04:00:26;25.83;;;23.90;;
1995;SDS011;38556;47.068;15.408;2022-11-02T04:02:59;27.13;;;25.35;;
1995;SDS011;38556;47.068;15.408;2022-11-02T04:05:28;27.23;;;25.30;;
1995;SDS011;38556;47.068;15.408;2022-11-02T04:07:57;25.98;;;24.17;;
1995;SDS011;38556;47.068;15.408;2022-11-02T04:10:42;26.08;;;24.25;;
1995;SDS011;38556;47.068;15.408;2022-11-02T04:13:24;26.80;;;24.95;;
1995;SDS011;38556;47.068;15.408;2022-11-02T04:16:09;25.38;;;23.77;;
1995;SDS011;38556;47.068;15.408;2022-11-02T04:18:36;26.77;;;25.10;;
1995;SDS011;38556;47.068;15.408;2022-11-02T04:21:22;26.77;;;25.17;;
1995;SDS011;38556;47.068;15.408;2022-11-02T04:23:49;26.08;;;24.23;;
1995;SDS011;38556;47.068;15.408;2022-11-02T04:26:34;26.15;;;24.15;;
1995;SDS011;38556;47.068;15.408;2022-11-02T04:29:01;25.83;;;24.20;;
1995;SDS011;38556;47.068;15.408;2022-11-02T04:31:30;26.45;;;24.45;;
1995;SDS011;38556;47.068;15.408;2022-11-02T04:33:58;25.65;;;23.95;;
1995;SDS011;38556;47.068;15.408;2022-11-02T04:36:24;25.42;;;23.63;;
1995;SDS011;38556;47.068;15.408;2022-11-02T04:38:53;26.13;;;24.52;;
1995;SDS011;38556;47.068;15.408;2022-11-02T04:41:21;26.60;;;25.02;;
1995;SDS011;38556;47.068;15.408;2022-11-02T04:44:07;26.70;;;24.95;;
1995;SDS011;38556;47.068;15.408;2022-11-02T04:46:37;26.35;;;24.58;;
1995;SDS011;38556;47.068;15.408;2022-11-02T04:49:05;28.27;;;26.17;;
1995;SDS011;38556;47.068;15.408;2022-11-02T04:51:34;27.92;;;26.23;;
1995;SDS011;38556;47.068;15.408;2022-11-02T04:54:01;27.00;;;25.20;;
1995;SDS011;38556;47.068;15.408;2022-11-02T04:56:29;26.42;;;24.65;;
1995;SDS011;38556;47.068;15.408;2022-11-02T04:58:57;27.00;;;25.13;;
1995;SDS011;38556;47.068;15.408;2022-11-02T05:01:26;28.30;;;26.40;;
1995;SDS011;38556;47.068;15.408;2022-11-02T05:03:55;29.60;;;27.70;;
1995;SDS011;38556;47.068;15.408;2022-11-02T05:06:23;30.23;;;28.30;;
1995;SDS011;38556;47.068;15.408;2022-11-02T05:08:51;40.70;;;37.40;;
1995;SDS011;38556;47.068;15.408;2022-11-02T05:11:18;51.70;;;47.28;;
1995;SDS011;38556;47.068;15.408;2022-11-02T05:13:45;36.65;;;34.05;;
1995;SDS011;38556;47.068;15.408;2022-11-02T05:16:14;33.65;;;31.17;;
1995;SDS011;38556;47.068;15.408;2022-11-02T05:18:42;32.25;;;29.95;;
1995;SDS011;38556;47.068;15.408;2022-11-02T05:21:11;31.58;;;29.58;;
1995;SDS011;38556;47.068;15.408;2022-11-02T05:23:38;31.40;;;29.50;;
1995;SDS011;38556;47.068;15.408;2022-11-02T05:26:07;30.25;;;28.38;;
1995;SDS011;38556;47.068;15.408;2022-11-02T05:28:36;31.02;;;28.83;;
1995;SDS011;38556;47.068;15.408;2022-11-02T05:31:04;29.48;;;27.58;;
1995;SDS011;38556;47.068;15.408;2022-11-02T05:33:31;31.27;;;28.80;;
1995;SDS011;38556;47.068;15.408;2022-11-02T05:35:59;32.00;;;29.83;;
1995;SDS011;38556;47.068;15.408;2022-11-02T05:38:32;34.88;;;32.40;;
1995;SDS011;38556;47.068;15.408;2022-11-02T05:40:59;31.48;;;29.15;;
1995;SDS011;38556;47.068;15.408;2022-11-02T05:43:27;30.55;;;28.67;;
1995;SDS011;38556;47.068;15.408;2022-11-02T05:45:54;30.33;;;28.00;;
1995;SDS011;38556;47.068;15.408;2022-11-02T05:48:23;34.90;;;32.45;;
1995;SDS011;38556;47.068;15.408;2022-11-02T05:50:53;28.95;;;27.05;;
1995;SDS011;38556;47.068;15.408;2022-11-02T05:53:21;29.38;;;27.08;;
1995;SDS011;38556;47.068;15.408;2022-11-02T05:55:50;29.00;;;26.98;;
1995;SDS011;38556;47.068;15.408;2022-11-02T05:58:17;26.85;;;25.05;;
1995;SDS011;38556;47.068;15.408;2022-11-02T06:00:44;28.95;;;26.95;;
1995;SDS011;38556;47.068;15.408;2022-11-02T06:03:11;33.65;;;31.05;;
1995;SDS011;38556;47.068;15.408;2022-11-02T06:05:39;46.95;;;42.40;;
1995;SDS011;38556;47.068;15.408;2022-11-02T06:08:06;40.22;;;36.67;;
1995;SDS011;38556;47.068;15.408;2022-11-02T06:10:34;33.22;;;30.38;;
1995;SDS011;38556;47.068;15.408;2022-11-02T06:13:03;33.67;;;31.27;;
1995;SDS011;38556;47.068;15.408;2022-11-02T06:15:30;39.97;;;36.88;;
1995;SDS011;38556;47.068;15.408;2022-11-02T06:17:58;40.17;;;36.80;;
1995;SDS011;38556;47.068;15.408;2022-11-02T06:20:25;33.38;;;30.90;;
1995;SDS011;38556;47.068;15.408;2022-11-02T06:22:52;27.98;;;25.98;;
1995;SDS011;38556;47.068;15.408;2022-11-02T06:25:20;30.50;;;28.50;;
1995;SDS011;38556;47.068;15.408;2022-11-02T06:27:50;30.95;;;28.65;;
1995;SDS011;38556;47.068;15.408;2022-11-02T06:30:21;31.67;;;29.20;;
1995;SDS011;38556;47.068;15.408;2022-11-02T06:32:49;37.42;;;34.33;;
1995;SDS011;38556;47.068;15.408;2022-11-02T06:35:18;42.58;;;38.97;;
1995;SDS011;38556;47.068;15.408;2022-11-02T06:37:46;34.10;;;31.50;;
1995;SDS011;38556;47.068;15.408;2022-11-02T06:40:14;33.40;;;30.90;;
1995;SDS011;38556;47.068;15.408;2022-11-02T06:42:41;31.65;;;29.35;;
1995;SDS011;38556;47.068;15.408;2022-11-02T06:45:09;32.05;;;29.80;;
1995;SDS011;38556;47.068;15.408;2022-11-02T06:47:38;31.77;;;29.60;;
1995;SDS011;38556;47.068;15.408;2022-11-02T06:50:06;32.85;;;30.15;;
1995;SDS011;38556;47.068;15.408;2022-11-02T06:52:34;33.00;;;30.48;;
1995;SDS011;38556;47.068;15.408;2022-11-02T06:55:01;31.73;;;29.13;;
1995;SDS011;38556;47.068;15.408;2022-11-02T06:57:29;31.88;;;29.45;;
1995;SDS011;38556;47.068;15.408;2022-11-02T07:00:01;31.00;;;28.55;;
1995;SDS011;38556;47.068;15.408;2022-11-02T07:02:30;30.83;;;28.63;;
1995;SDS011;38556;47.068;15.408;2022-11-02T07:04:58;30.85;;;28.40;;
1995;SDS011;38556;47.068;15.408;2022-11-02T07:07:27;30.38;;;28.20;;
1995;SDS011;38556;47.068;15.408;2022-11-02T07:09:54;31.95;;;29.80;;
1995;SDS011;38556;47.068;15.408;2022-11-02T07:12:21;30.77;;;28.75;;
1995;SDS011;38556;47.068;15.408;2022-11-02T07:14:48;30.30;;;28.20;;
1995;SDS011;38556;47.068;15.408;2022-11-02T07:17:16;30.27;;;28.48;;
1995;SDS011;38556;47.068;15.408;2022-11-02T07:19:43;31.58;;;29.40;;
1995;SDS011;38556;47.068;15.408;2022-11-02T07:22:12;31.88;;;29.60;;
1995;SDS011;38556;47.068;15.408;2022-11-02T07:24:39;32.53;;;30.05;;
1995;SDS011;38556;47.068;15.408;2022-11-02T07:27:07;32.20;;;30.03;;
1995;SDS011;38556;47.068;15.408;2022-11-02T07:29:34;32.75;;;30.65;;
1995;SDS011;38556;47.068;15.408;2022-11-02T07:32:02;32.38;;;29.60;;
1995;SDS011;38556;47.068;15.408;2022-11-02T07:34:31;32.60;;;30.10;;
1995;SDS011;38556;47.068;15.408;2022-11-02T07:36:59;36.92;;;33.92;;
1995;SDS011;38556;47.068;15.408;2022-11-02T07:39:27;33.25;;;30.52;;
1995;SDS011;38556;47.068;15.408;2022-11-02T07:41:55;32.33;;;29.77;;
1995;SDS011;38556;47.068;15.408;2022-11-02T07:44:22;31.27;;;28.60;;
1995;SDS011;38556;47.068;15.408;2022-11-02T07:46:50;32.38;;;30.17;;
1995;SDS011;38556;47.068;15.408;2022-11-02T07:49:17;34.13;;;31.40;;
1995;SDS011;38556;47.068;15.408;2022-11-02T07:51:44;33.70;;;31.20;;
1995;SDS011;38556;47.068;15.408;2022-11-02T07:54:11;33.93;;;31.67;;
1995;SDS011;38556;47.068;15.408;2022-11-02T07:56:40;33.13;;;30.60;;
1995;SDS011;38556;47.068;15.408;2022-11-02T07:59:10;36.00;;;32.73;;
1995;SDS011;38556;47.068;15.408;2022-11-02T08:01:38;33.90;;;31.50;;
1995;SDS011;38556;47.068;15.408;2022-11-02T08:04:05;35.20;;;32.30;;
1995;SDS011;38556;47.068;15.408;2022-11-02T08:06:33;34.15;;;31.50;;
1995;SDS011;38556;47.068;15.408;2022-11-02T08:09:01;32.47;;;30.20;;
1995;SDS011;38556;47.068;15.408;2022-11-02T08:11:29;33.10;;;30.33;;
1995;SDS011;38556;47.068;15.408;2022-11-02T08:13:58;32.53;;;30.15;;
1995;SDS011;38556;47.068;15.408;2022-11-02T08:16:26;38.70;;;35.17;;
1995;SDS011;38556;47.068;15.408;2022-11-02T08:18:54;38.00;;;34.93;;
1995;SDS011;38556;47.068;15.408;2022-11-02T08:21:23;34.03;;;31.53;;
1995;SDS011;38556;47.068;15.408;2022-11-02T08:23:51;33.67;;;31.33;;
1995;SDS011;38556;47.068;15.408;2022-11-02T08:26:19;33.50;;;31.10;;
1995;SDS011;38556;47.068;15.408;2022-11-02T08:28:47;31.13;;;29.00;;
1995;SDS011;38556;47.068;15.408;2022-11-02T08:31:16;32.20;;;30.00;;
1995;SDS011;38556;47.068;15.408;2022-11-02T08:33:43;31.47;;;29.47;;
1995;SDS011;38556;47.068;15.408;2022-11-02T08:36:11;33.57;;;31.07;;
1995;SDS011;38556;47.068;15.408;2022-11-02T08:38:38;33.63;;;31.30;;
1995;SDS011;38556;47.068;15.408;2022-11-02T08:41:07;38.27;;;34.30;;
1995;SDS011;38556;47.068;15.408;2022-11-02T08:43:34;34.77;;;32.17;;
1995;SDS011;38556;47.068;15.408;2022-11-02T08:46:01;33.57;;;31.10;;
1995;SDS011;38556;47.068;15.408;2022-11-02T08:48:30;34.43;;;32.03;;
1995;SDS011;38556;47.068;15.408;2022-11-02T08:50:57;33.30;;;30.93;;
1995;SDS011;38556;47.068;15.408;2022-11-02T08:53:24;32.43;;;30.13;;
1995;SDS011;38556;47.068;15.408;2022-11-02T08:55:51;31.60;;;29.40;;
1995;SDS011;38556;47.068;15.408;2022-11-02T08:58:19;30.60;;;28.47;;
1995;SDS011;38556;47.068;15.408;2022-11-02T09:00:47;30.17;;;28.17;;
1995;SDS011;38556;47.068;15.408;2022-11-02T09:03:14;32.27;;;29.77;;
1995;SDS011;38556;47.068;15.408;2022-11-02T09:05:44;33.20;;;30.73;;
1995;SDS011;38556;47.068;15.408;2022-11-02T09:08:13;31.00;;;28.93;;
1995;SDS011;38556;47.068;15.408;2022-11-02T09:10:42;30.93;;;28.93;;
1995;SDS011;38556;47.068;15.408;2022-11-02T09:13:11;31.93;;;29.60;;
1995;SDS011;38556;47.068;15.408;2022-11-02T09:15:39;31.53;;;29.30;;
1995;SDS011;38556;47.068;15.408;2022-11-02T09:18:07;30.83;;;28.93;;
1995;SDS011;38556;47.068;15.408;2022-11-02T09:20:35;31.80;;;29.80;;
1995;SDS011;38556;47.068;15.408;2022-11-02T09:23:04;31.07;;;28.80;;
1995;SDS011;38556;47.068;15.408;2022-11-02T09:25:31;32.37;;;29.80;;
1995;SDS011;38556;47.068;15.408;2022-11-02T09:27:59;32.00;;;29.50;;
1995;SDS011;38556;47.068;15.408;2022-11-02T09:30:27;30.30;;;28.37;;
1995;SDS011;38556;47.068;15.408;2022-11-02T09:32:54;30.93;;;28.93;;
1995;SDS011;38556;47.068;15.408;2022-11-02T09:35:23;31.57;;;29.07;;
1995;SDS011;38556;47.068;15.408;2022-11-02T09:37:51;30.23;;;28.13;;
1995;SDS011;38556;47.068;15.408;2022-11-02T09:40:21;30.97;;;28.80;;
1995;SDS011;38556;47.068;15.408;2022-11-02T09:42:54;29.60;;;27.50;;
1995;SDS011;38556;47.068;15.408;2022-11-02T09:45:28;30.47;;;28.37;;
1995;SDS011;38556;47.068;15.408;2022-11-02T09:48:00;31.80;;;29.50;;
1995;SDS011;38556;47.068;15.408;2022-11-02T09:50:37;31.33;;;28.90;;
1995;SDS011;38556;47.068;15.408;2022-11-02T09:53:09;32.07;;;29.77;;
1995;SDS011;38556;47.068;15.408;2022-11-02T09:55:49;30.93;;;28.43;;
1995;SDS011;38556;47.068;15.408;2022-11-02T09:58:19;32.73;;;30.27;;
1995;SDS011;38556;47.068;15.408;2022-11-02T10:00:50;34.50;;;31.80;;
1995;SDS011;38556;47.068;15.408;2022-11-02T10:03:24;32.80;;;30.17;;
1995;SDS011;38556;47.068;15.408;2022-11-02T10:06:01;30.70;;;28.40;;
1995;SDS011;38556;47.068;15.408;2022-11-02T10:08:34;30.60;;;28.03;;
1995;SDS011;38556;47.068;15.408;2022-11-02T10:11:16;29.70;;;27.33;;
1995;SDS011;38556;47.068;15.408;2022-11-02T10:13:51;30.93;;;28.50;;
1995;SDS011;38556;47.068;15.408;2022-11-02T10:16:23;29.90;;;27.90;;
1995;SDS011;38556;47.068;15.408;2022-11-02T10:18:54;29.50;;;27.30;;
1995;SDS011;38556;47.068;15.408;2022-11-02T10:21:22;29.63;;;27.60;;
1995;SDS011;38556;47.068;15.408;2022-11-02T10:23:54;29.87;;;27.50;;
1995;SDS011;38556;47.068;15.408;2022-11-02T10:26:26;28.77;;;26.60;;
1995;SDS011;38556;47.068;15.408;2022-11-02T10:28:57;30.07;;;27.80;;
1995;SDS011;38556;47.068;15.408;2022-11-02T10:31:26;29.67;;;27.37;;
1995;SDS011;38556;47.068;15.408;2022-11-02T10:33:56;30.40;;;28.17;;
1995;SDS011;38556;47.068;15.408;2022-11-02T10:36:33;28.77;;;26.77;;
1995;SDS011;38556;47.068;15.408;2022-11-02T10:39:11;27.47;;;25.10;;
1995;SDS011;38556;47.068;15.408;2022-11-02T10:41:59;31.30;;;28.47;;
1995;SDS011;38556;47.068;15.408;2022-11-02T10:44:43;30.53;;;28.47;;
1995;SDS011;38556;47.068;15.408;2022-11-02T10:47:23;29.00;;;26.50;;
1995;SDS011;38556;47.068;15.408;2022-11-02T10:52:56;28.23;;;25.80;;
1995;SDS011;38556;47.068;15.408;2022-11-02T10:55:26;28.20;;;25.83;;
1995;SDS011;38556;47.068;15.408;2022-11-02T10:58:01;28.17;;;25.80;;
1995;SDS011;38556;47.068;15.408;2022-11-02T11:00:31;27.33;;;24.80;;
1995;SDS011;38556;47.068;15.408;2022-11-02T11:03:04;29.23;;;27.23;;
1995;SDS011;38556;47.068;15.408;2022-11-02T11:05:33;28.30;;;25.83;;
1995;SDS011;38556;47.068;15.408;2022-11-02T11:08:04;26.83;;;25.23;;
1995;SDS011;38556;47.068;15.408;2022-11-02T11:10:34;26.17;;;24.07;;
1995;SDS011;38556;47.068;15.408;2022-11-02T11:13:05;26.60;;;24.80;;
1995;SDS011;38556;47.068;15.408;2022-11-02T11:15:47;26.90;;;24.50;;
1995;SDS011;38556;47.068;15.408;2022-11-02T11:18:17;26.93;;;24.03;;
1995;SDS011;38556;47.068;15.408;2022-11-02T11:20:47;27.10;;;24.13;;
1995;SDS011;38556;47.068;15.408;2022-11-02T11:23:21;25.47;;;23.60;;
1995;SDS011;38556;47.068;15.408;2022-11-02T11:25:54;26.37;;;24.30;;
1995;SDS011;38556;47.068;15.408;2022-11-02T11:28:25;26.00;;;24.00;;
1995;SDS011;38556;47.068;15.408;2022-11-02T11:31:02;24.37;;;22.77;;
1995;SDS011;38556;47.068;15.408;2022-11-02T11:33:31;25.27;;;23.10;;
1995;SDS011;38556;47.068;15.408;2022-11-02T11:36:08;24.77;;;22.83;;
1995;SDS011;38556;47.068;15.408;2022-11-02T11:38:36;25.13;;;23.30;;
1995;SDS011;38556;47.068;15.408;2022-11-02T11:41:12;25.67;;;23.60;;
1995;SDS011;38556;47.068;15.408;2022-11-02T11:43:41;24.40;;;22.70;;
1995;SDS011;38556;47.068;15.408;2022-11-02T11:46:11;24.97;;;23.03;;
1995;SDS011;38556;47.068;15.408;2022-11-02T11:48:40;25.63;;;23.63;;
1995;SDS011;38556;47.068;15.408;2022-11-02T11:54:04;24.80;;;22.87;;
1995;SDS011;38556;47.068;15.408;2022-11-02T11:56:47;23.53;;;21.43;;
1995;SDS011;38556;47.068;15.408;2022-11-02T11:59:21;24.10;;;21.60;;
1995;SDS011;38556;47.068;15.408;2022-11-02T12:01:52;23.27;;;21.53;;
1995;SDS011;38556;47.068;15.408;2022-11-02T12:04:25;25.00;;;23.00;;
1995;SDS011;38556;47.068;15.408;2022-11-02T12:06:58;22.70;;;21.03;;
1995;SDS011;38556;47.068;15.408;2022-11-02T12:09:45;22.77;;;21.17;;
1995;SDS011;38556;47.068;15.408;2022-11-02T12:12:25;21.97;;;20.33;;
1995;SDS011;38556;47.068;15.408;2022-11-02T12:15:04;26.77;;;24.77;;
1995;SDS011;38556;47.068;15.408;2022-11-02T12:17:45;26.00;;;24.10;;
1995;SDS011;38556;47.068;15.408;2022-11-02T12:20:34;24.50;;;22.60;;
1995;SDS011;38556;47.068;15.408;2022-11-02T12:23:21;24.37;;;22.70;;
1995;SDS011;38556;47.068;15.408;2022-11-02T12:26:07;21.67;;;20.37;;
1995;SDS011;38556;47.068;15.408;2022-11-02T12:28:49;22.67;;;20.93;;
1995;SDS011;38556;47.068;15.408;2022-11-02T12:31:27;22.03;;;20.30;;
1995;SDS011;38556;47.068;15.408;2022-11-02T12:34:08;22.23;;;20.60;;
1995;SDS011;38556;47.068;15.408;2022-11-02T12:36:49;22.87;;;21.50;;
1995;SDS011;38556;47.068;15.408;2022-11-02T12:39:28;21.63;;;20.13;;
1995;SDS011;38556;47.068;15.408;2022-11-02T12:42:13;22.03;;;20.53;;
1995;SDS011;38556;47.068;15.408;2022-11-02T12:44:55;21.20;;;19.80;;
1995;SDS011;38556;47.068;15.408;2022-11-02T12:47:42;23.00;;;21.40;;
1995;SDS011;38556;47.068;15.408;2022-11-02T12:50:23;21.40;;;20.20;;
1995;SDS011;38556;47.068;15.408;2022-11-02T12:53:07;21.27;;;19.97;;
1995;SDS011;38556;47.068;15.408;2022-11-02T12:55:48;22.17;;;20.70;;
1995;SDS011;38556;47.068;15.408;2022-11-02T12:58:19;22.30;;;21.00;;
1995;SDS011;38556;47.068;15.408;2022-11-02T13:00:50;21.90;;;20.07;;
1995;SDS011;38556;47.068;15.408;2022-11-02T13:03:26;21.93;;;20.37;;
1995;SDS011;38556;47.068;15.408;2022-11-02T13:06:03;21.80;;;20.23;;
1995;SDS011;38556;47.068;15.408;2022-11-02T13:08:37;22.60;;;20.97;;
1995;SDS011;38556;47.068;15.408;2022-11-02T13:11:11;22.77;;;20.93;;
1995;SDS011;38556;47.068;15.408;2022-11-02T13:13:42;22.73;;;21.07;;
1995;SDS011;38556;47.068;15.408;2022-11-02T13:16:12;21.70;;;20.30;;
1995;SDS011;38556;47.068;15.408;2022-11-02T13:18:45;21.80;;;20.37;;
1995;SDS011;38556;47.068;15.408;2022-11-02T13:21:15;22.67;;;21.27;;
1995;SDS011;38556;47.068;15.408;2022-11-02T13:23:48;22.03;;;20.37;;
1995;SDS011;38556;47.068;15.408;2022-11-02T13:26:23;22.30;;;20.20;;
1995;SDS011;38556;47.068;15.408;2022-11-02T13:28:53;21.27;;;19.97;;
1995;SDS011;38556;47.068;15.408;2022-11-02T13:31:26;22.10;;;20.13;;
1995;SDS011;38556;47.068;15.408;2022-11-02T13:33:57;22.63;;;21.10;;
1995;SDS011;38556;47.068;15.408;2022-11-02T13:36:28;21.87;;;20.37;;
1995;SDS011;38556;47.068;15.408;2022-11-02T13:38:57;22.23;;;20.53;;
1995;SDS011;38556;47.068;15.408;2022-11-02T13:47:53;21.67;;;19.87;;
1995;SDS011;38556;47.068;15.408;2022-11-02T13:50:47;23.27;;;21.03;;
1995;SDS011;38556;47.068;15.408;2022-11-02T13:53:18;21.80;;;20.23;;
1995;SDS011;38556;47.068;15.408;2022-11-02T13:55:49;22.07;;;20.47;;
1995;SDS011;38556;47.068;15.408;2022-11-02T13:58:21;21.07;;;19.50;;
1995;SDS011;38556;47.068;15.408;2022-11-02T14:00:50;20.00;;;18.80;;
1995;SDS011;38556;47.068;15.408;2022-11-02T14:03:21;19.97;;;18.87;;
1995;SDS011;38556;47.068;15.408;2022-11-02T14:05:54;22.17;;;20.73;;
1995;SDS011;38556;47.068;15.408;2022-11-02T14:08:27;20.23;;;18.83;;
1995;SDS011;38556;47.068;15.408;2022-11-02T14:11:03;20.77;;;19.43;;
1995;SDS011;38556;47.068;15.408;2022-11-02T14:14:05;21.93;;;20.70;;
1995;SDS011;38556;47.068;15.408;2022-11-02T14:16:42;20.40;;;18.90;;
1995;SDS011;38556;47.068;15.408;2022-11-02T14:19:21;20.37;;;18.87;;
1995;SDS011;38556;47.068;15.408;2022-11-02T14:22:09;20.10;;;18.90;;
1995;SDS011;38556;47.068;15.408;2022-11-02T14:27:43;20.83;;;19.00;;
1995;SDS011;38556;47.068;15.408;2022-11-02T14:36:22;20.50;;;19.43;;
1995;SDS011;38556;47.068;15.408;2022-11-02T14:39:07;23.63;;;21.33;;
1995;SDS011;38556;47.068;15.408;2022-11-02T14:41:42;21.83;;;20.13;;
1995;SDS011;38556;47.068;15.408;2022-11-02T14:44:30;21.23;;;19.70;;
1995;SDS011;38556;47.068;15.408;2022-11-02T14:47:20;23.73;;;21.93;;
1995;SDS011;38556;47.068;15.408;2022-11-02T14:49:53;22.17;;;20.40;;
1995;SDS011;38556;47.068;15.408;2022-11-02T14:52:24;20.33;;;19.00;;
1995;SDS011;38556;47.068;15.408;2022-11-02T14:55:04;21.37;;;19.47;;
1995;SDS011;38556;47.068;15.408;2022-11-02T14:57:36;20.60;;;18.80;;
1995;SDS011;38556;47.068;15.408;2022-11-02T15:00:16;21.90;;;20.33;;
1995;SDS011;38556;47.068;15.408;2022-11-02T15:02:45;21.50;;;20.10;;
1995;SDS011;38556;47.068;15.408;2022-11-02T15:05:19;21.90;;;19.90;;
1995;SDS011;38556;47.068;15.408;2022-11-02T15:07:53;20.77;;;19.37;;